Time;durP1;ratioP1;P1;durP2;ratioP2;P2;SDS_P1;SDS_P2;PMS_P1;PMS_P2;Temp;Humidity;BMP_temperature;BMP_pressure;BME280_temperature;BME280_humidity;BME280_pressure;Samples;Min_cycle;Max_cycle;Signal;HPM_P1;HPM_P2
2022/10/16 00:01:14;;;;;;;61.90;32.77;;;;;;;;;;5091920;28;20181;-71
2022/10/16 00:03:41;;;;;;;55.93;31.17;;;;;;;;;;5074312;28;20189;-72
2022/10/16 00:06:08;;;;;;;58.00;29.50;;;;;;;;;;5091850;28;20217;-71
2022/10/16 00:08:35;;;;;;;64.90;31.73;;;;;;;;;;5073697;28;20204;-71
2022/10/16 00:11:03;;;;;;;60.97;32.07;;;;;;;;;;5074041;28;20296;-71
2022/10/16 00:13:29;;;;;;;57.40;30.50;;;;;;;;;;5063935;28;20198;-71
2022/10/16 00:15:57;;;;;;;56.53;30.57;;;;;;;;;;5054043;28;20190;-71
2022/10/16 00:18:23;;;;;;;61.63;31.07;;;;;;;;;;5071665;28;20213;-71
2022/10/16 00:20:50;;;;;;;63.93;31.33;;;;;;;;;;5071369;28;20194;-72
2022/10/16 00:23:17;;;;;;;60.70;30.30;;;;;;;;;;5053705;28;20194;-71
2022/10/16 00:25:44;;;;;;;57.83;31.57;;;;;;;;;;5071149;28;20209;-71
2022/10/16 00:28:10;;;;;;;56.70;30.47;;;;;;;;;;5053242;28;20251;-72
2022/10/16 00:30:37;;;;;;;58.37;31.10;;;;;;;;;;5071509;28;20247;-72
2022/10/16 00:33:04;;;;;;;56.73;29.80;;;;;;;;;;5070927;28;20658;-71
2022/10/16 00:35:31;;;;;;;56.77;28.87;;;;;;;;;;5071260;28;20186;-71
2022/10/16 00:37:57;;;;;;;57.93;30.70;;;;;;;;;;5070574;28;20218;-71
2022/10/16 00:40:24;;;;;;;53.53;28.47;;;;;;;;;;5066424;28;20216;-72
2022/10/16 00:42:50;;;;;;;51.60;28.73;;;;;;;;;;5091292;28;20583;-71
2022/10/16 00:45:17;;;;;;;55.00;30.07;;;;;;;;;;5091518;28;20259;-71
2022/10/16 00:47:45;;;;;;;54.90;29.13;;;;;;;;;;5091103;28;20201;-71
2022/10/16 00:50:21;;;;;;;53.67;27.57;;;;;;;;;;5073827;28;20239;-71
2022/10/16 00:52:48;;;;;;;51.43;26.70;;;;;;;;;;5069448;28;20231;-71
2022/10/16 00:55:15;;;;;;;51.93;25.90;;;;;;;;;;5053142;28;20213;-71
2022/10/16 00:57:41;;;;;;;48.83;26.33;;;;;;;;;;5053360;28;20193;-71
2022/10/16 01:00:09;;;;;;;49.97;26.77;;;;;;;;;;5053024;28;20278;-72
2022/10/16 01:02:35;;;;;;;50.10;25.37;;;;;;;;;;5053116;28;20201;-71
2022/10/16 01:05:02;;;;;;;45.37;24.90;;;;;;;;;;5052975;28;20217;-71
2022/10/16 01:08:01;;;;;;;46.50;25.07;;;;;;;;;;5052536;28;20210;-71
2022/10/16 01:10:28;;;;;;;41.33;22.53;;;;;;;;;;5036538;28;20205;-71
2022/10/16 01:13:02;;;;;;;42.50;23.00;;;;;;;;;;5090680;28;20300;-71
2022/10/16 01:15:29;;;;;;;40.03;22.73;;;;;;;;;;5072792;28;20204;-71
2022/10/16 01:18:11;;;;;;;41.77;23.60;;;;;;;;;;5090418;28;20276;-72
2022/10/16 01:20:45;;;;;;;42.60;23.80;;;;;;;;;;5072416;28;20568;-71
2022/10/16 01:23:27;;;;;;;39.23;22.47;;;;;;;;;;5055864;28;20192;-71
2022/10/16 01:25:58;;;;;;;42.33;23.83;;;;;;;;;;5055848;28;20220;-71
2022/10/16 01:28:27;;;;;;;42.63;25.00;;;;;;;;;;5071622;28;20185;-72
2022/10/16 01:30:55;;;;;;;40.67;21.10;;;;;;;;;;5090518;28;20185;-71
2022/10/16 01:33:26;;;;;;;37.07;22.33;;;;;;;;;;5090490;28;20180;-72
2022/10/16 01:35:55;;;;;;;39.27;23.17;;;;;;;;;;5090280;28;20196;-71
2022/10/16 01:38:23;;;;;;;35.20;22.33;;;;;;;;;;5089922;28;20216;-72
2022/10/16 01:40:51;;;;;;;38.03;22.67;;;;;;;;;;5072114;28;20189;-72
2022/10/16 01:43:28;;;;;;;33.17;21.33;;;;;;;;;;5072252;28;20213;-72
2022/10/16 01:46:16;;;;;;;34.47;21.87;;;;;;;;;;5052197;28;20236;-71
2022/10/16 01:48:43;;;;;;;31.57;20.83;;;;;;;;;;5051524;28;20194;-71
2022/10/16 01:51:10;;;;;;;32.93;20.97;;;;;;;;;;5069814;28;20244;-72
2022/10/16 01:53:37;;;;;;;33.23;21.10;;;;;;;;;;5035626;28;20198;-71
2022/10/16 01:56:05;;;;;;;31.73;20.47;;;;;;;;;;5051945;28;20182;-72
2022/10/16 01:58:34;;;;;;;31.70;20.73;;;;;;;;;;5051913;28;20217;-72
2022/10/16 02:01:01;;;;;;;33.23;20.90;;;;;;;;;;5060678;28;20193;-72
2022/10/16 02:03:28;;;;;;;32.53;20.07;;;;;;;;;;5072102;28;20844;-71
2022/10/16 02:05:55;;;;;;;26.40;19.00;;;;;;;;;;5071676;28;20251;-72
2022/10/16 02:08:22;;;;;;;29.73;19.33;;;;;;;;;;5089649;28;20197;-72
2022/10/16 02:10:49;;;;;;;28.23;18.53;;;;;;;;;;5071915;28;20185;-72
2022/10/16 02:13:28;;;;;;;25.63;17.27;;;;;;;;;;5071777;28;20195;-72
2022/10/16 02:15:55;;;;;;;26.87;18.03;;;;;;;;;;5089731;28;20692;-72
2022/10/16 02:18:21;;;;;;;27.70;17.77;;;;;;;;;;5055109;28;20201;-72
2022/10/16 02:20:50;;;;;;;27.87;18.30;;;;;;;;;;5071510;28;20198;-72
2022/10/16 02:23:20;;;;;;;25.43;17.20;;;;;;;;;;5070807;28;20197;-72
2022/10/16 02:25:46;;;;;;;26.73;17.20;;;;;;;;;;5053501;28;20206;-72
2022/10/16 02:28:23;;;;;;;25.40;17.33;;;;;;;;;;5069515;28;20190;-72
2022/10/16 02:30:51;;;;;;;24.93;17.03;;;;;;;;;;5051597;28;20708;-72
2022/10/16 02:33:17;;;;;;;27.90;17.77;;;;;;;;;;5051836;28;20271;-72
2022/10/16 02:35:44;;;;;;;24.20;16.90;;;;;;;;;;5051381;28;20190;-72
2022/10/16 02:38:11;;;;;;;24.37;16.93;;;;;;;;;;5051387;28;20364;-72
2022/10/16 02:40:39;;;;;;;24.40;17.47;;;;;;;;;;5085080;28;20193;-72
2022/10/16 02:43:06;;;;;;;25.40;17.27;;;;;;;;;;5089078;28;20653;-72
2022/10/16 02:45:33;;;;;;;27.47;17.70;;;;;;;;;;5054880;28;20602;-72
2022/10/16 02:47:59;;;;;;;26.37;17.83;;;;;;;;;;5071817;28;20217;-72
2022/10/16 02:50:26;;;;;;;22.63;17.07;;;;;;;;;;5050800;28;20190;-72
2022/10/16 02:52:52;;;;;;;26.00;16.90;;;;;;;;;;5069212;28;20220;-72
2022/10/16 02:55:19;;;;;;;26.40;18.20;;;;;;;;;;5068995;28;20783;-72
2022/10/16 02:57:45;;;;;;;26.80;17.93;;;;;;;;;;5051340;28;20194;-72
2022/10/16 03:00:13;;;;;;;26.60;18.37;;;;;;;;;;5068890;28;20190;-71
2022/10/16 03:02:39;;;;;;;27.13;18.57;;;;;;;;;;5071739;28;20213;-72
2022/10/16 03:05:06;;;;;;;26.47;18.93;;;;;;;;;;5072670;28;20182;-72
2022/10/16 03:07:34;;;;;;;24.80;17.80;;;;;;;;;;5055106;28;20271;-72
2022/10/16 03:10:01;;;;;;;23.20;17.07;;;;;;;;;;5072876;28;20194;-72
2022/10/16 03:12:28;;;;;;;24.83;17.40;;;;;;;;;;5072845;28;20190;-72
2022/10/16 03:14:57;;;;;;;23.13;16.50;;;;;;;;;;5054925;28;20232;-72
2022/10/16 03:17:24;;;;;;;23.93;17.30;;;;;;;;;;5054748;28;20182;-71
2022/10/16 03:19:51;;;;;;;27.77;19.07;;;;;;;;;;5074217;28;20255;-72
2022/10/16 03:22:18;;;;;;;26.77;18.67;;;;;;;;;;5092706;28;20185;-72
2022/10/16 03:24:44;;;;;;;25.67;18.87;;;;;;;;;;5092865;28;20243;-72
2022/10/16 03:27:11;;;;;;;25.37;17.97;;;;;;;;;;5092560;28;20205;-72
2022/10/16 03:29:38;;;;;;;24.93;17.70;;;;;;;;;;5091434;28;20201;-71
2022/10/16 03:32:04;;;;;;;24.80;17.90;;;;;;;;;;5092509;28;20714;-71
2022/10/16 03:34:31;;;;;;;27.53;18.43;;;;;;;;;;5092655;28;20279;-72
2022/10/16 03:36:58;;;;;;;27.50;19.73;;;;;;;;;;5083228;28;20260;-71
2022/10/16 03:39:24;;;;;;;26.07;19.00;;;;;;;;;;5059961;28;20209;-71
2022/10/16 03:41:51;;;;;;;27.17;19.07;;;;;;;;;;5092563;28;20205;-72
2022/10/16 03:44:18;;;;;;;26.33;18.93;;;;;;;;;;5092516;28;20263;-72
2022/10/16 03:46:44;;;;;;;28.33;20.57;;;;;;;;;;5092182;28;20276;-71
2022/10/16 03:49:11;;;;;;;32.33;20.23;;;;;;;;;;5092387;28;20197;-70
2022/10/16 03:51:38;;;;;;;31.73;20.97;;;;;;;;;;5074608;28;20713;-71
2022/10/16 03:54:04;;;;;;;33.03;19.67;;;;;;;;;;5087494;28;20271;-71
2022/10/16 03:56:31;;;;;;;31.03;21.27;;;;;;;;;;5071748;28;20221;-72
2022/10/16 03:58:58;;;;;;;32.10;22.27;;;;;;;;;;5072043;28;20228;-72
2022/10/16 04:01:25;;;;;;;32.10;20.80;;;;;;;;;;5071497;28;20229;-72
2022/10/16 04:03:51;;;;;;;30.37;20.67;;;;;;;;;;5071963;28;20194;-72
2022/10/16 04:06:18;;;;;;;30.77;22.07;;;;;;;;;;5084230;28;20205;-71
2022/10/16 04:08:46;;;;;;;32.83;22.50;;;;;;;;;;5090940;28;20522;-72
2022/10/16 04:11:13;;;;;;;33.57;21.67;;;;;;;;;;5053027;28;20523;-72
2022/10/16 04:13:40;;;;;;;28.63;20.60;;;;;;;;;;5045973;28;20196;-72
2022/10/16 04:16:06;;;;;;;30.13;19.90;;;;;;;;;;5070935;28;20190;-71
2022/10/16 04:18:33;;;;;;;29.30;20.63;;;;;;;;;;5071987;28;20217;-72
2022/10/16 04:21:03;;;;;;;28.03;20.07;;;;;;;;;;5071461;28;20297;-72
2022/10/16 04:23:30;;;;;;;30.70;21.33;;;;;;;;;;5071217;28;20194;-72
2022/10/16 04:25:56;;;;;;;32.90;19.63;;;;;;;;;;5067203;28;20197;-72
2022/10/16 04:28:23;;;;;;;28.07;20.13;;;;;;;;;;5073253;28;20221;-72
2022/10/16 04:30:50;;;;;;;33.13;21.13;;;;;;;;;;5091381;28;20272;-72
2022/10/16 04:33:17;;;;;;;29.80;20.13;;;;;;;;;;5091953;28;20247;-72
2022/10/16 04:35:43;;;;;;;29.93;20.67;;;;;;;;;;5057013;28;20578;-72
2022/10/16 04:38:10;;;;;;;29.87;21.27;;;;;;;;;;5072993;28;20236;-72
2022/10/16 04:40:37;;;;;;;28.97;20.47;;;;;;;;;;5073435;28;20594;-72
2022/10/16 04:43:04;;;;;;;28.90;20.43;;;;;;;;;;5044687;28;20204;-72
2022/10/16 04:45:30;;;;;;;29.20;20.80;;;;;;;;;;5036918;28;20222;-72
2022/10/16 04:47:57;;;;;;;30.27;20.87;;;;;;;;;;5053141;28;20209;-72
2022/10/16 04:50:24;;;;;;;31.93;21.77;;;;;;;;;;5070675;28;20269;-72
2022/10/16 04:53:03;;;;;;;29.97;21.17;;;;;;;;;;5054890;28;20554;-72
2022/10/16 04:55:30;;;;;;;31.57;21.27;;;;;;;;;;5052906;28;20541;-72
2022/10/16 04:57:57;;;;;;;34.07;22.53;;;;;;;;;;5070482;28;20676;-72
2022/10/16 05:00:23;;;;;;;31.73;23.10;;;;;;;;;;5077927;28;20215;-72
2022/10/16 05:02:50;;;;;;;34.83;22.60;;;;;;;;;;5072708;28;20685;-72
2022/10/16 05:05:19;;;;;;;32.53;23.53;;;;;;;;;;5090622;28;20189;-72
2022/10/16 05:07:46;;;;;;;34.27;22.63;;;;;;;;;;5073121;28;20220;-71
2022/10/16 05:10:13;;;;;;;32.57;22.23;;;;;;;;;;5090881;28;20201;-72
2022/10/16 05:12:39;;;;;;;43.87;23.60;;;;;;;;;;5073459;28;20239;-72
2022/10/16 05:15:08;;;;;;;37.50;24.30;;;;;;;;;;5084865;28;20195;-72
2022/10/16 05:17:35;;;;;;;32.20;23.33;;;;;;;;;;5070561;28;20198;-72
2022/10/16 05:20:05;;;;;;;37.60;24.33;;;;;;;;;;5053278;28;20201;-72
2022/10/16 05:22:32;;;;;;;34.33;24.20;;;;;;;;;;5070329;28;20213;-72
2022/10/16 05:24:58;;;;;;;35.27;24.53;;;;;;;;;;5051678;28;20200;-72
2022/10/16 05:27:25;;;;;;;37.37;25.30;;;;;;;;;;5070365;28;20943;-72
2022/10/16 05:29:52;;;;;;;35.53;24.03;;;;;;;;;;5052802;28;20265;-72
2022/10/16 05:32:19;;;;;;;37.67;25.30;;;;;;;;;;5070351;28;20235;-71
2022/10/16 05:34:45;;;;;;;34.03;24.73;;;;;;;;;;5087839;28;20213;-72
2022/10/16 05:37:12;;;;;;;38.40;26.20;;;;;;;;;;5072232;28;20767;-72
2022/10/16 05:39:39;;;;;;;36.90;25.80;;;;;;;;;;5090597;28;20709;-71
2022/10/16 05:42:05;;;;;;;38.53;27.17;;;;;;;;;;5069282;28;20246;-72
2022/10/16 05:44:32;;;;;;;38.47;26.20;;;;;;;;;;5059150;28;20657;-72
2022/10/16 05:46:59;;;;;;;41.17;27.30;;;;;;;;;;5052093;28;20190;-72
2022/10/16 05:49:26;;;;;;;41.37;27.57;;;;;;;;;;5087228;28;20598;-72
2022/10/16 05:51:52;;;;;;;38.63;26.83;;;;;;;;;;5090040;28;20174;-72
2022/10/16 05:54:19;;;;;;;39.73;27.10;;;;;;;;;;5090199;28;20195;-72
2022/10/16 05:56:45;;;;;;;41.50;28.13;;;;;;;;;;5089519;28;20300;-72
2022/10/16 05:59:14;;;;;;;41.63;28.63;;;;;;;;;;5087892;28;20650;-73
2022/10/16 06:01:40;;;;;;;44.13;28.40;;;;;;;;;;5089848;28;20197;-73
2022/10/16 06:04:08;;;;;;;45.70;28.90;;;;;;;;;;5070452;28;20259;-73
2022/10/16 06:06:36;;;;;;;46.27;30.60;;;;;;;;;;5088256;28;20208;-72
2022/10/16 06:09:02;;;;;;;46.67;30.93;;;;;;;;;;5088268;28;20340;-73
2022/10/16 06:11:30;;;;;;;48.80;30.00;;;;;;;;;;5065570;28;20680;-73
2022/10/16 06:13:58;;;;;;;48.20;31.20;;;;;;;;;;5064285;28;20196;-69
2022/10/16 06:16:24;;;;;;;50.27;31.97;;;;;;;;;;5062488;28;20603;-70
2022/10/16 06:18:51;;;;;;;47.87;31.57;;;;;;;;;;5062736;28;20275;-72
2022/10/16 06:21:24;;;;;;;47.70;30.13;;;;;;;;;;5063414;28;20192;-72
2022/10/16 06:23:51;;;;;;;51.47;31.57;;;;;;;;;;5063155;28;20595;-72
2022/10/16 06:26:18;;;;;;;51.90;32.50;;;;;;;;;;5059661;28;20285;-76
2022/10/16 06:28:45;;;;;;;47.23;31.07;;;;;;;;;;5062883;28;20225;-74
2022/10/16 06:31:14;;;;;;;46.63;31.13;;;;;;;;;;5062640;28;20221;-72
2022/10/16 06:33:40;;;;;;;45.53;30.13;;;;;;;;;;5047644;28;20217;-72
2022/10/16 06:36:08;;;;;;;46.30;30.27;;;;;;;;;;5062265;28;20268;-74
2022/10/16 06:38:35;;;;;;;49.70;29.47;;;;;;;;;;5079408;28;20988;-68
2022/10/16 06:41:02;;;;;;;43.80;28.20;;;;;;;;;;5063670;28;20294;-70
2022/10/16 06:43:31;;;;;;;46.30;29.43;;;;;;;;;;5078574;28;20201;-68
2022/10/16 06:45:58;;;;;;;45.30;29.53;;;;;;;;;;5080170;28;20192;-70
2022/10/16 06:48:25;;;;;;;44.97;28.10;;;;;;;;;;5045405;28;21013;-69
2022/10/16 06:50:56;;;;;;;49.83;30.10;;;;;;;;;;5063298;28;20665;-71
2022/10/16 06:53:31;;;;;;;42.37;28.20;;;;;;;;;;5065126;28;20187;-71
2022/10/16 06:56:11;;;;;;;42.83;27.37;;;;;;;;;;5055393;28;20192;-69
2022/10/16 06:58:38;;;;;;;43.77;26.60;;;;;;;;;;5079564;28;20247;-69
2022/10/16 07:01:05;;;;;;;39.50;26.10;;;;;;;;;;5062185;28;20193;-69
2022/10/16 07:03:32;;;;;;;40.33;26.50;;;;;;;;;;5065832;28;20277;-70
2022/10/16 07:06:03;;;;;;;39.10;25.30;;;;;;;;;;5063890;28;20246;-68
2022/10/16 07:08:36;;;;;;;35.93;25.17;;;;;;;;;;5081402;28;20208;-69
2022/10/16 07:11:04;;;;;;;35.23;24.50;;;;;;;;;;5078086;28;20193;-68
2022/10/16 07:13:34;;;;;;;32.03;23.73;;;;;;;;;;5076118;28;20194;-69
2022/10/16 07:16:05;;;;;;;33.53;23.00;;;;;;;;;;5073734;28;20202;-72
2022/10/16 07:18:32;;;;;;;29.97;21.80;;;;;;;;;;5048385;28;20276;-72
2022/10/16 07:21:12;;;;;;;28.93;21.07;;;;;;;;;;5078479;28;20205;-70
2022/10/16 07:23:40;;;;;;;31.73;22.07;;;;;;;;;;5063066;28;21003;-72
2022/10/16 07:26:07;;;;;;;27.83;20.70;;;;;;;;;;5053018;28;20235;-72
2022/10/16 07:28:35;;;;;;;31.47;21.10;;;;;;;;;;5044981;28;20221;-72
2022/10/16 07:31:03;;;;;;;29.83;20.67;;;;;;;;;;5056735;28;20644;-72
2022/10/16 07:33:31;;;;;;;32.70;23.50;;;;;;;;;;5049224;28;20197;-72
2022/10/16 07:35:58;;;;;;;33.77;22.73;;;;;;;;;;5066445;28;20281;-72
2022/10/16 07:38:24;;;;;;;36.67;23.77;;;;;;;;;;5076792;28;20225;-72
2022/10/16 07:40:57;;;;;;;38.20;24.97;;;;;;;;;;5071880;28;20329;-73
2022/10/16 07:43:25;;;;;;;38.87;25.50;;;;;;;;;;5087857;28;20190;-72
2022/10/16 07:45:52;;;;;;;44.37;28.40;;;;;;;;;;5067515;28;20220;-73
2022/10/16 07:48:23;;;;;;;43.87;27.40;;;;;;;;;;5074935;28;20239;-72
2022/10/16 07:50:50;;;;;;;43.83;28.53;;;;;;;;;;5074466;28;20211;-73
2022/10/16 07:53:21;;;;;;;45.90;27.53;;;;;;;;;;5073757;28;20197;-72
2022/10/16 07:55:52;;;;;;;46.93;28.27;;;;;;;;;;5078076;28;20719;-73
2022/10/16 07:58:20;;;;;;;44.20;28.23;;;;;;;;;;5064617;28;20181;-73
2022/10/16 08:00:47;;;;;;;52.30;30.67;;;;;;;;;;5079298;28;20649;-73
2022/10/16 08:03:13;;;;;;;49.47;30.27;;;;;;;;;;5073938;28;20653;-73
2022/10/16 08:05:40;;;;;;;44.70;29.40;;;;;;;;;;5074354;28;20190;-73
2022/10/16 08:08:11;;;;;;;47.50;29.30;;;;;;;;;;5067453;28;20217;-72
2022/10/16 08:10:39;;;;;;;46.30;29.53;;;;;;;;;;5081280;28;20186;-73
2022/10/16 08:13:06;;;;;;;45.73;28.47;;;;;;;;;;5080784;28;20202;-73
2022/10/16 08:15:38;;;;;;;49.20;29.83;;;;;;;;;;5076478;28;20681;-73
2022/10/16 08:18:06;;;;;;;49.00;28.83;;;;;;;;;;5086894;28;20573;-72
2022/10/16 08:20:33;;;;;;;49.67;30.17;;;;;;;;;;5061898;28;20588;-74
2022/10/16 08:23:01;;;;;;;52.93;31.23;;;;;;;;;;5058714;28;20224;-75
2022/10/16 08:25:28;;;;;;;49.10;30.47;;;;;;;;;;5074181;28;20248;-73
2022/10/16 08:27:55;;;;;;;50.87;31.13;;;;;;;;;;5077839;28;20221;-74
2022/10/16 08:30:22;;;;;;;45.33;29.23;;;;;;;;;;5057238;28;20201;-73
2022/10/16 08:32:50;;;;;;;47.97;30.60;;;;;;;;;;5079744;28;20221;-74
2022/10/16 08:35:18;;;;;;;49.10;29.43;;;;;;;;;;5080629;28;20198;-74
2022/10/16 08:37:45;;;;;;;50.33;29.37;;;;;;;;;;5072845;28;20586;-74
2022/10/16 08:40:16;;;;;;;50.77;30.70;;;;;;;;;;5058105;28;20201;-73
2022/10/16 08:42:44;;;;;;;44.57;28.00;;;;;;;;;;5068115;28;20239;-73
2022/10/16 08:45:23;;;;;;;45.53;29.03;;;;;;;;;;5086281;28;20209;-75
2022/10/16 08:47:58;;;;;;;43.23;28.00;;;;;;;;;;5087460;28;20335;-73
2022/10/16 08:50:27;;;;;;;43.57;28.37;;;;;;;;;;5068317;28;20575;-74
2022/10/16 08:52:55;;;;;;;46.97;28.40;;;;;;;;;;5068905;28;20213;-74
2022/10/16 08:55:38;;;;;;;44.97;28.00;;;;;;;;;;5051480;28;20197;-71
2022/10/16 08:58:15;;;;;;;41.63;26.97;;;;;;;;;;5079954;28;20269;-73
2022/10/16 09:00:42;;;;;;;39.73;26.07;;;;;;;;;;5100585;28;20555;-73
2022/10/16 09:03:28;;;;;;;42.33;27.50;;;;;;;;;;5086798;28;20275;-73
2022/10/16 09:06:07;;;;;;;45.63;27.67;;;;;;;;;;5086163;28;20757;-73
2022/10/16 09:08:51;;;;;;;43.73;28.07;;;;;;;;;;5082143;28;20216;-74
2022/10/16 09:11:30;;;;;;;41.80;26.43;;;;;;;;;;5066024;28;20253;-73
2022/10/16 09:14:15;;;;;;;39.17;26.17;;;;;;;;;;5078403;28;20177;-72
2022/10/16 09:16:51;;;;;;;43.10;27.30;;;;;;;;;;5080772;28;20229;-72
2022/10/16 09:19:33;;;;;;;44.10;28.27;;;;;;;;;;5087618;28;20189;-72
2022/10/16 09:22:01;;;;;;;41.60;27.23;;;;;;;;;;5059475;28;20181;-72
2022/10/16 09:24:29;;;;;;;39.17;25.43;;;;;;;;;;5063169;28;20247;-72
2022/10/16 09:26:56;;;;;;;42.00;26.63;;;;;;;;;;5070769;28;20749;-72
2022/10/16 09:29:29;;;;;;;34.90;24.63;;;;;;;;;;5065924;28;20221;-72
2022/10/16 09:31:55;;;;;;;42.00;25.33;;;;;;;;;;5074107;28;20198;-72
2022/10/16 09:34:26;;;;;;;39.37;24.87;;;;;;;;;;5072462;28;20666;-73
2022/10/16 09:36:54;;;;;;;36.97;23.83;;;;;;;;;;5071982;28;20308;-72
2022/10/16 09:39:21;;;;;;;39.03;26.40;;;;;;;;;;5075777;28;20194;-72
2022/10/16 09:41:49;;;;;;;39.87;25.93;;;;;;;;;;5076486;28;20191;-73
2022/10/16 09:44:25;;;;;;;40.40;26.50;;;;;;;;;;5058272;28;20191;-73
2022/10/16 09:47:03;;;;;;;40.30;26.50;;;;;;;;;;5073086;28;20200;-73
2022/10/16 09:49:30;;;;;;;41.37;27.30;;;;;;;;;;5072280;28;20212;-72
2022/10/16 09:52:04;;;;;;;38.43;25.87;;;;;;;;;;5051701;28;20215;-73
2022/10/16 09:54:34;;;;;;;43.17;26.60;;;;;;;;;;5058747;28;20190;-73
2022/10/16 09:57:04;;;;;;;43.67;27.87;;;;;;;;;;5071590;28;20202;-73
2022/10/16 09:59:32;;;;;;;43.07;27.60;;;;;;;;;;5072200;28;20197;-73
2022/10/16 10:02:03;;;;;;;39.97;26.77;;;;;;;;;;5071393;28;20754;-72
2022/10/16 10:04:42;;;;;;;40.90;28.17;;;;;;;;;;5054174;28;20194;-73
2022/10/16 10:07:32;;;;;;;47.27;29.30;;;;;;;;;;5064400;28;20178;-72
2022/10/16 10:09:59;;;;;;;44.40;28.77;;;;;;;;;;5089898;28;20195;-72
2022/10/16 10:12:32;;;;;;;41.00;27.40;;;;;;;;;;5080280;28;20220;-73
2022/10/16 10:15:04;;;;;;;40.40;26.60;;;;;;;;;;5058584;28;20194;-72
2022/10/16 10:17:31;;;;;;;42.87;27.87;;;;;;;;;;5053406;28;20248;-72
2022/10/16 10:20:23;;;;;;;44.37;28.67;;;;;;;;;;5071638;28;20595;-72
2022/10/16 10:22:50;;;;;;;45.27;29.13;;;;;;;;;;5035223;28;20209;-72
2022/10/16 10:25:20;;;;;;;42.90;27.87;;;;;;;;;;5039734;28;20186;-73
2022/10/16 10:28:22;;;;;;;44.40;28.87;;;;;;;;;;5085235;28;20203;-72
2022/10/16 10:31:17;;;;;;;39.87;26.90;;;;;;;;;;5039379;28;20189;-72
2022/10/16 10:34:03;;;;;;;40.80;27.50;;;;;;;;;;5086776;28;20692;-73
2022/10/16 10:36:31;;;;;;;44.70;26.87;;;;;;;;;;5089636;28;20205;-73
2022/10/16 10:39:18;;;;;;;42.53;28.13;;;;;;;;;;5088403;28;20269;-73
2022/10/16 10:41:48;;;;;;;45.07;27.97;;;;;;;;;;5086902;28;20182;-72
2022/10/16 10:44:35;;;;;;;41.10;27.20;;;;;;;;;;5086346;28;20680;-73
2022/10/16 10:47:01;;;;;;;40.13;27.30;;;;;;;;;;5089461;28;20284;-72
2022/10/16 10:49:49;;;;;;;42.83;27.67;;;;;;;;;;5087224;28;20210;-72
2022/10/16 10:52:23;;;;;;;37.50;26.80;;;;;;;;;;5069548;28;20166;-72
2022/10/16 10:55:10;;;;;;;40.83;26.73;;;;;;;;;;5069682;28;20202;-72
2022/10/16 10:58:01;;;;;;;38.77;27.53;;;;;;;;;;5051746;28;20204;-72
2022/10/16 11:00:29;;;;;;;35.40;24.77;;;;;;;;;;5058852;28;20202;-72
2022/10/16 11:03:34;;;;;;;33.33;25.23;;;;;;;;;;5035456;28;20201;-72
2022/10/16 11:06:13;;;;;;;33.10;25.23;;;;;;;;;;4987461;28;20209;-71
2022/10/16 11:08:39;;;;;;;30.27;20.57;;;;;;;;;;5071329;28;20217;-72
2022/10/16 11:11:25;;;;;;;27.37;20.10;;;;;;;;;;5089282;28;20228;-72
2022/10/16 11:14:18;;;;;;;25.00;19.63;;;;;;;;;;5089305;28;20194;-72
2022/10/16 11:16:53;;;;;;;25.57;18.93;;;;;;;;;;5085936;28;20216;-72
2022/10/16 11:19:21;;;;;;;23.57;18.43;;;;;;;;;;5071758;28;20196;-72
2022/10/16 11:21:50;;;;;;;23.40;17.70;;;;;;;;;;5090352;28;20193;-72
2022/10/16 11:24:22;;;;;;;21.13;16.40;;;;;;;;;;5047730;28;20194;-72
2022/10/16 11:26:53;;;;;;;20.40;16.23;;;;;;;;;;5072885;28;20538;-72
2022/10/16 11:29:22;;;;;;;21.10;15.93;;;;;;;;;;5055236;28;20255;-72
2022/10/16 11:31:52;;;;;;;19.37;14.97;;;;;;;;;;5072903;28;20278;-72
2022/10/16 11:34:39;;;;;;;18.10;14.67;;;;;;;;;;5054722;28;20277;-72
2022/10/16 11:37:09;;;;;;;22.93;15.77;;;;;;;;;;5072320;28;20222;-72
2022/10/16 11:39:36;;;;;;;19.67;15.33;;;;;;;;;;5062249;28;20196;-72
2022/10/16 11:42:10;;;;;;;19.13;15.00;;;;;;;;;;5074768;28;20528;-72
2022/10/16 11:44:41;;;;;;;17.23;13.73;;;;;;;;;;5075737;28;20257;-72
2022/10/16 11:47:23;;;;;;;17.30;13.43;;;;;;;;;;5074913;28;20228;-72
2022/10/16 11:50:10;;;;;;;16.77;12.80;;;;;;;;;;5043932;28;20225;-72
2022/10/16 11:52:46;;;;;;;14.13;11.77;;;;;;;;;;5072280;28;20193;-72
2022/10/16 11:55:17;;;;;;;16.23;12.67;;;;;;;;;;5054456;28;20569;-72
2022/10/16 11:57:45;;;;;;;12.13;10.43;;;;;;;;;;5054818;28;20260;-71
2022/10/16 12:00:19;;;;;;;13.07;10.00;;;;;;;;;;5037664;28;20218;-72
2022/10/16 12:02:46;;;;;;;12.33;10.20;;;;;;;;;;5070773;28;20275;-72
2022/10/16 12:05:32;;;;;;;13.10;10.80;;;;;;;;;;5072245;28;20232;-72
2022/10/16 12:08:02;;;;;;;13.13;10.50;;;;;;;;;;5060391;28;20263;-72
2022/10/16 12:10:31;;;;;;;12.37;10.83;;;;;;;;;;5037485;28;20251;-72
2022/10/16 12:12:59;;;;;;;10.87;9.50;;;;;;;;;;5064113;28;20197;-72
2022/10/16 12:15:27;;;;;;;10.87;9.40;;;;;;;;;;5075413;28;20325;-72
2022/10/16 12:18:24;;;;;;;11.37;8.53;;;;;;;;;;5065304;28;20243;-72
2022/10/16 12:20:58;;;;;;;10.37;8.53;;;;;;;;;;5076164;28;20593;-71
2022/10/16 12:23:26;;;;;;;10.40;8.50;;;;;;;;;;5076512;28;20683;-72
2022/10/16 12:25:56;;;;;;;12.43;8.97;;;;;;;;;;5058937;28;20224;-72
2022/10/16 12:28:27;;;;;;;10.97;8.57;;;;;;;;;;5055755;28;20272;-72
2022/10/16 12:30:58;;;;;;;12.77;8.67;;;;;;;;;;5076038;28;20268;-72
2022/10/16 12:33:31;;;;;;;9.60;6.03;;;;;;;;;;5088671;28;20231;-72
2022/10/16 12:35:58;;;;;;;9.50;7.20;;;;;;;;;;5075826;28;20197;-72
2022/10/16 12:38:38;;;;;;;7.27;6.57;;;;;;;;;;5072982;28;20229;-72
2022/10/16 12:41:08;;;;;;;7.47;6.63;;;;;;;;;;5089690;28;20238;-72
2022/10/16 12:43:38;;;;;;;8.27;6.10;;;;;;;;;;5073788;28;20741;-72
2022/10/16 12:46:08;;;;;;;6.37;5.77;;;;;;;;;;5091246;28;20197;-72
2022/10/16 12:48:35;;;;;;;7.53;6.00;;;;;;;;;;5089650;28;20220;-72
2022/10/16 12:51:22;;;;;;;6.50;5.80;;;;;;;;;;5070068;28;20865;-72
2022/10/16 12:54:10;;;;;;;7.47;6.27;;;;;;;;;;5070928;28;20274;-72
2022/10/16 12:56:40;;;;;;;6.20;5.33;;;;;;;;;;5070849;28;20202;-72
2022/10/16 12:59:26;;;;;;;7.27;5.70;;;;;;;;;;5070874;28;20269;-72
2022/10/16 13:02:14;;;;;;;7.00;5.43;;;;;;;;;;5071035;28;20209;-71
2022/10/16 13:04:48;;;;;;;7.13;5.93;;;;;;;;;;5054203;28;20255;-71
2022/10/16 13:07:15;;;;;;;7.40;5.90;;;;;;;;;;5089465;28;20544;-72
2022/10/16 13:09:49;;;;;;;7.10;5.87;;;;;;;;;;5091375;28;20224;-71
2022/10/16 13:12:34;;;;;;;6.30;5.27;;;;;;;;;;5090063;28;20189;-71
2022/10/16 13:15:20;;;;;;;6.50;5.63;;;;;;;;;;5090868;28;20268;-71
2022/10/16 13:17:54;;;;;;;6.53;5.53;;;;;;;;;;5091030;28;20190;-71
2022/10/16 13:20:30;;;;;;;6.90;5.50;;;;;;;;;;5090857;28;20185;-71
2022/10/16 13:23:07;;;;;;;6.47;5.80;;;;;;;;;;5064301;28;20193;-71
2022/10/16 13:25:45;;;;;;;8.87;5.87;;;;;;;;;;5067503;28;20209;-70
2022/10/16 13:28:12;;;;;;;7.50;6.67;;;;;;;;;;5083644;28;20189;-71
2022/10/16 13:30:39;;;;;;;7.93;6.27;;;;;;;;;;5073362;28;20217;-71
2022/10/16 13:33:25;;;;;;;7.10;6.03;;;;;;;;;;5090273;28;20224;-71
2022/10/16 13:35:56;;;;;;;6.97;6.13;;;;;;;;;;5090585;28;20295;-71
2022/10/16 13:38:25;;;;;;;6.73;6.03;;;;;;;;;;5076476;28;20222;-71
2022/10/16 13:40:52;;;;;;;8.43;5.73;;;;;;;;;;5050522;28;20197;-71
2022/10/16 13:43:19;;;;;;;7.33;6.17;;;;;;;;;;5070468;28;20190;-71
2022/10/16 13:45:55;;;;;;;7.20;6.50;;;;;;;;;;5051995;28;20247;-72
2022/10/16 13:48:32;;;;;;;8.73;6.20;;;;;;;;;;5054373;28;20253;-71
2022/10/16 13:51:19;;;;;;;7.43;6.20;;;;;;;;;;5051619;28;20289;-72
2022/10/16 13:53:52;;;;;;;11.40;6.60;;;;;;;;;;5075234;28;20591;-72
2022/10/16 13:56:21;;;;;;;6.90;6.10;;;;;;;;;;5072641;28;20209;-72
2022/10/16 13:59:02;;;;;;;7.00;6.30;;;;;;;;;;5072431;28;20185;-72
2022/10/16 14:01:30;;;;;;;10.93;6.87;;;;;;;;;;5072078;28;20219;-71
2022/10/16 14:04:02;;;;;;;8.50;6.17;;;;;;;;;;5090190;28;20246;-71
2022/10/16 14:06:29;;;;;;;6.80;6.17;;;;;;;;;;5090142;28;20254;-71
2022/10/16 14:09:01;;;;;;;7.60;6.80;;;;;;;;;;5072332;28;20205;-72
2022/10/16 14:11:30;;;;;;;7.97;6.50;;;;;;;;;;5089649;28;20205;-72
2022/10/16 14:13:58;;;;;;;13.03;7.13;;;;;;;;;;5072795;28;20194;-72
2022/10/16 14:16:31;;;;;;;8.50;7.17;;;;;;;;;;5090083;28;20197;-71
2022/10/16 14:19:03;;;;;;;7.57;6.63;;;;;;;;;;5076010;28;20185;-72
2022/10/16 14:21:31;;;;;;;11.07;7.37;;;;;;;;;;5072134;28;20296;-71
2022/10/16 14:24:10;;;;;;;8.40;7.17;;;;;;;;;;5055338;28;20197;-72
2022/10/16 14:26:40;;;;;;;9.40;6.90;;;;;;;;;;5089981;28;20191;-72
2022/10/16 14:29:14;;;;;;;7.53;6.73;;;;;;;;;;5089986;28;20204;-72
2022/10/16 14:31:41;;;;;;;10.10;7.07;;;;;;;;;;5055044;28;20193;-72
2022/10/16 14:34:46;;;;;;;8.27;6.83;;;;;;;;;;5089653;28;20197;-72
2022/10/16 14:37:17;;;;;;;9.33;6.60;;;;;;;;;;4969006;28;20237;-72
2022/10/16 14:39:51;;;;;;;8.07;7.20;;;;;;;;;;4968720;28;20193;-72
2022/10/16 14:42:19;;;;;;;9.00;7.57;;;;;;;;;;5017952;28;20202;-72